GCFV/FUE METAR and TAF weather

Enter ICAO airport designator
Station Type Date Time Source
GCFV METAR 2019/06/16 07:30 UTC NOAA

GCFV 160730Z 36009KT 9999 FEW035 20/14 Q1020


Station Type Date Time Source
GCFV Decoded METAR 2019/06/16 07:30 UTC NOAA

Fuerteventura / Aeropuerto, Spain (GCFV) 28-27N 013-52W 30M
Jun 16, 2019 - 03:30 AM EDT / 2019.06.16 0730 UTC
Wind: from the N (360 degrees) at 10 MPH (9 KT):0
Visibility: greater than 7 mile(s):0
Sky conditions: mostly clear
Temperature: 68 F (20 C)
Dew Point: 57 F (14 C)
Relative Humidity: 68%
Pressure (altimeter): 30.12 in. Hg (1020 hPa)
ob: GCFV 160730Z 36009KT 9999 FEW035 20/14 Q1020
cycle: 7

Station Type Date Time Source
GCFV TAF 2019/06/16 03:29 UTC NOAA

TAF GCFV 160200Z 1603/1703 34007KT 9999 SCT030 TX24/1615Z TN17/1606Z
BECMG 1608/1610 06010KT

Example: see airport list